Time;durP1;ratioP1;P1;durP2;ratioP2;P2;SDS_P1;SDS_P2;PMS_P1;PMS_P2;Temp;Humidity;BMP_temperature;BMP_pressure;BME280_temperature;BME280_humidity;BME280_pressure;Samples;Min_cycle;Max_cycle;Signal;HPM_P1;HPM_P2
2021/10/12 13:00:05;;;;;;;;;;;9.90;79.20;;;;;;5061671;27;80287;-66
2021/10/12 13:02:31;;;;;;;;;;;9.90;79.60;;;;;;5061954;27;80356;-67
2021/10/12 13:04:57;;;;;;;;;;;10.00;79.40;;;;;;5062273;27;80322;-60
2021/10/12 13:07:22;;;;;;;;;;;10.10;79.00;;;;;;5060602;27;82893;-66
2021/10/12 13:09:52;;;;;;;;;;;10.10;78.50;;;;;;5060279;27;80315;-60
2021/10/12 13:12:18;;;;;;;;;;;10.20;78.20;;;;;;5061107;27;80360;-63
2021/10/12 13:14:47;;;;;;;;;;;10.30;77.90;;;;;;5061033;27;81385;-65
2021/10/12 13:17:19;;;;;;;;;;;10.40;77.90;;;;;;5057448;27;80311;-60
2021/10/12 13:19:48;;;;;;;;;;;10.50;77.00;;;;;;5061000;27;82197;-71
2021/10/12 13:22:15;;;;;;;;;;;10.50;77.00;;;;;;5060130;27;80370;-67
2021/10/12 13:24:41;;;;;;;;;;;10.50;76.70;;;;;;5059581;27;80752;-65
2021/10/12 13:27:06;;;;;;;;;;;10.50;78.20;;;;;;5059972;27;80983;-62
2021/10/12 13:29:32;;;;;;;;;;;10.60;80.90;;;;;;5061346;27;80503;-57
2021/10/12 13:32:00;;;;;;;;;;;10.60;80.10;;;;;;5060648;27;81781;-65
2021/10/12 13:34:29;;;;;;;;;;;10.70;78.60;;;;;;5060070;27;81760;-70
2021/10/12 13:36:55;;;;;;;;;;;10.70;78.00;;;;;;5058050;27;81589;-62
2021/10/12 13:39:20;;;;;;;;;;;10.80;77.80;;;;;;5061946;27;80365;-62
2021/10/12 13:41:46;;;;;;;;;;;10.70;77.70;;;;;;5063419;27;81705;-62
2021/10/12 13:44:11;;;;;;;;;;;10.70;77.90;;;;;;5060163;27;80308;-59
2021/10/12 13:46:37;;;;;;;;;;;10.70;77.50;;;;;;5059570;27;80893;-66
2021/10/12 13:49:03;;;;;;;;;;;10.80;77.20;;;;;;5060001;27;80393;-62
2021/10/12 13:51:28;;;;;;;;;;;10.70;77.30;;;;;;5060475;27;80508;-63
2021/10/12 13:53:55;;;;;;;;;;;10.80;77.10;;;;;;5061247;27;80850;-61
2021/10/12 13:56:21;;;;;;;;;;;10.80;77.00;;;;;;5059642;27;80363;-62
2021/10/12 13:58:46;;;;;;;;;;;10.80;76.90;;;;;;5060274;27;82662;-63
2021/10/12 14:01:12;;;;;;;;;;;10.80;76.90;;;;;;5060391;27;80764;-53
2021/10/12 14:03:37;;;;;;;;;;;10.70;77.00;;;;;;5060138;27;81873;-58
2021/10/12 14:06:03;;;;;;;;;;;10.70;77.20;;;;;;5057481;27;81540;-59
2021/10/12 14:08:28;;;;;;;;;;;10.70;76.90;;;;;;5058678;27;80418;-60
2021/10/12 14:10:57;;;;;;;;;;;10.70;77.00;;;;;;5046638;27;80378;-58
2021/10/12 14:13:23;;;;;;;;;;;10.80;76.90;;;;;;5041478;28;82142;-54
2021/10/12 14:15:48;;;;;;;;;;;10.80;76.60;;;;;;5044890;28;80518;-61
2021/10/12 14:18:14;;;;;;;;;;;10.80;76.50;;;;;;5042022;28;80382;-55
2021/10/12 14:20:39;;;;;;;;;;;10.90;76.80;;;;;;5043695;28;80912;-50
2021/10/12 14:23:05;;;;;;;;;;;10.90;76.10;;;;;;5044646;28;80326;-55
2021/10/12 14:25:30;;;;;;;;;;;10.80;76.10;;;;;;5047092;28;80433;-56
2021/10/12 14:27:56;;;;;;;;;;;10.80;76.20;;;;;;5045171;28;80479;-59
2021/10/12 14:30:21;;;;;;;;;;;10.80;76.60;;;;;;5044722;28;81120;-51
2021/10/12 14:32:48;;;;;;;;;;;10.70;76.80;;;;;;5043847;28;82134;-60
2021/10/12 14:35:13;;;;;;;;;;;10.70;76.80;;;;;;5043698;28;80379;-56
2021/10/12 14:37:39;;;;;;;;;;;10.70;76.30;;;;;;5044788;28;80423;-59
2021/10/12 14:40:07;;;;;;;;;;;10.70;76.90;;;;;;5045601;28;80952;-48
2021/10/12 14:42:33;;;;;;;;;;;10.70;77.00;;;;;;5043733;28;80387;-50
2021/10/12 14:44:59;;;;;;;;;;;10.70;77.40;;;;;;5044667;28;80424;-72
2021/10/12 14:47:24;;;;;;;;;;;10.70;77.00;;;;;;5047887;28;80951;-58
2021/10/12 14:49:50;;;;;;;;;;;10.80;76.80;;;;;;5044861;28;81634;-56
2021/10/12 14:52:15;;;;;;;;;;;10.80;77.00;;;;;;5043932;28;82507;-61
2021/10/12 14:54:41;;;;;;;;;;;10.80;77.10;;;;;;5043471;28;80375;-57
2021/10/12 14:57:06;;;;;;;;;;;10.80;77.00;;;;;;5044476;28;80574;-64
2021/10/12 14:59:33;;;;;;;;;;;10.80;76.90;;;;;;5045212;28;81903;-45
2021/10/12 15:02:00;;;;;;;;;;;10.70;77.00;;;;;;5043208;28;80521;-67
2021/10/12 15:04:25;;;;;;;;;;;10.70;77.50;;;;;;5042690;28;81376;-65
2021/10/12 15:06:52;;;;;;;;;;;10.70;77.60;;;;;;5044431;28;80916;-67
2021/10/12 15:09:18;;;;;;;;;;;10.70;77.30;;;;;;5048617;28;80642;-69
2021/10/12 15:11:44;;;;;;;;;;;10.70;77.50;;;;;;5044867;28;81656;-61
2021/10/12 15:14:09;;;;;;;;;;;10.70;77.50;;;;;;5041929;28;80383;-61
2021/10/12 15:16:35;;;;;;;;;;;10.70;77.30;;;;;;5043222;28;81449;-60
2021/10/12 15:19:01;;;;;;;;;;;10.70;77.60;;;;;;5043835;28;81108;-54
2021/10/12 15:21:28;;;;;;;;;;;10.80;77.10;;;;;;5042001;28;80430;-53
2021/10/12 15:23:54;;;;;;;;;;;10.80;77.30;;;;;;5042609;28;82318;-57
2021/10/12 15:26:19;;;;;;;;;;;10.80;77.50;;;;;;5043112;28;81005;-62
2021/10/12 15:28:45;;;;;;;;;;;10.80;77.30;;;;;;5045946;28;80361;-59
2021/10/12 15:31:11;;;;;;;;;;;10.80;76.90;;;;;;5044391;28;81613;-60
2021/10/12 15:33:37;;;;;;;;;;;10.80;77.00;;;;;;5044742;28;80378;-58
2021/10/12 15:36:02;;;;;;;;;;;10.80;77.00;;;;;;5045798;28;82020;-59
2021/10/12 15:38:28;;;;;;;;;;;10.80;77.00;;;;;;5044788;28;81713;-59
2021/10/12 15:40:55;;;;;;;;;;;10.70;77.20;;;;;;5041580;28;80448;-61
2021/10/12 15:43:20;;;;;;;;;;;10.80;77.30;;;;;;5046301;28;80591;-59
2021/10/12 15:45:46;;;;;;;;;;;10.80;77.20;;;;;;5044687;28;80697;-61
2021/10/12 15:48:12;;;;;;;;;;;10.70;77.40;;;;;;5041948;28;81680;-60
2021/10/12 15:50:37;;;;;;;;;;;10.80;77.40;;;;;;5045017;28;80406;-60
2021/10/12 15:53:03;;;;;;;;;;;10.80;77.60;;;;;;5042912;28;80367;-60
2021/10/12 15:55:28;;;;;;;;;;;10.70;77.60;;;;;;5043654;28;80716;-53
2021/10/12 15:57:54;;;;;;;;;;;10.80;77.60;;;;;;5044572;28;80402;-62
2021/10/12 16:00:19;;;;;;;;;;;10.80;78.40;;;;;;5046041;28;80502;-53
2021/10/12 16:02:45;;;;;;;;;;;10.80;78.20;;;;;;5043492;28;81879;-71
2021/10/12 16:05:10;;;;;;;;;;;10.80;77.90;;;;;;5041573;28;80939;-60
2021/10/12 16:07:36;;;;;;;;;;;10.90;77.80;;;;;;5042954;28;80369;-60
2021/10/12 16:10:01;;;;;;;;;;;10.80;77.70;;;;;;5044289;28;80418;-61
2021/10/12 16:12:27;;;;;;;;;;;10.80;77.90;;;;;;5048087;28;80894;-60
2021/10/12 16:23:07;;;;;;;;;;;10.80;77.80;;;;;;5044547;28;80394;-60
2021/10/12 16:25:33;;;;;;;;;;;10.80;77.70;;;;;;5045013;28;82173;-62
2021/10/12 16:27:58;;;;;;;;;;;10.90;77.60;;;;;;5044529;28;80462;-68
2021/10/12 16:30:24;;;;;;;;;;;10.90;77.50;;;;;;5043402;28;81529;-60
2021/10/12 16:32:50;;;;;;;;;;;10.90;77.40;;;;;;5040772;28;82803;-56
2021/10/12 16:35:19;;;;;;;;;;;11.00;77.60;;;;;;5043915;28;80358;-61
2021/10/12 16:37:45;;;;;;;;;;;11.00;76.90;;;;;;5043462;28;83320;-60
2021/10/12 16:40:15;;;;;;;;;;;11.10;76.60;;;;;;5045061;28;80309;-60
2021/10/12 16:42:42;;;;;;;;;;;11.10;76.50;;;;;;5044548;28;81413;-59
2021/10/12 16:45:07;;;;;;;;;;;11.10;76.30;;;;;;5043237;28;82019;-66
2021/10/12 16:47:33;;;;;;;;;;;11.10;76.50;;;;;;5043958;28;81746;-59
2021/10/12 16:49:58;;;;;;;;;;;11.10;76.20;;;;;;5040871;28;80928;-49
2021/10/12 16:52:24;;;;;;;;;;;11.20;76.00;;;;;;5041636;28;80554;-53
2021/10/12 16:54:49;;;;;;;;;;;11.10;76.00;;;;;;5043007;28;80844;-58
2021/10/12 16:57:15;;;;;;;;;;;11.10;76.10;;;;;;5046472;28;81286;-60
2021/10/12 16:59:40;;;;;;;;;;;11.00;76.30;;;;;;5043204;28;80416;-56
2021/10/12 17:02:06;;;;;;;;;;;11.00;76.60;;;;;;5043818;28;80770;-57
2021/10/12 17:04:31;;;;;;;;;;;11.00;76.50;;;;;;5042014;28;83067;-59
2021/10/12 17:06:57;;;;;;;;;;;11.00;76.20;;;;;;5041833;28;81381;-65
2021/10/12 17:09:23;;;;;;;;;;;11.00;76.30;;;;;;5040834;28;82147;-55
2021/10/12 17:11:49;;;;;;;;;;;11.00;76.50;;;;;;5039680;28;82704;-52
2021/10/12 17:14:16;;;;;;;;;;;11.00;76.50;;;;;;5040100;28;84615;-53
2021/10/12 17:16:42;;;;;;;;;;;10.90;76.90;;;;;;5044790;28;83762;-57
2021/10/12 17:19:08;;;;;;;;;;;11.00;76.80;;;;;;5040017;28;82919;-57
2021/10/12 17:21:34;;;;;;;;;;;11.10;76.20;;;;;;5039255;28;82995;-49
2021/10/12 17:24:00;;;;;;;;;;;11.20;75.70;;;;;;5039827;28;82748;-57
2021/10/12 17:26:26;;;;;;;;;;;11.10;75.90;;;;;;5040523;28;82104;-50
2021/10/12 17:28:52;;;;;;;;;;;11.00;76.40;;;;;;5038983;28;82080;-58
2021/10/12 17:31:18;;;;;;;;;;;10.90;76.30;;;;;;5044135;28;83953;-52
2021/10/12 17:33:44;;;;;;;;;;;11.00;76.30;;;;;;5043338;28;83787;-60
2021/10/12 17:36:10;;;;;;;;;;;11.00;76.20;;;;;;5040219;28;83728;-59
2021/10/12 17:38:35;;;;;;;;;;;11.00;76.20;;;;;;5041113;28;85209;-57
2021/10/12 17:41:01;;;;;;;;;;;11.00;76.20;;;;;;5039301;28;85127;-51
2021/10/12 17:43:26;;;;;;;;;;;11.00;76.10;;;;;;5040459;28;84897;-50
2021/10/12 17:45:52;;;;;;;;;;;11.00;76.20;;;;;;5044066;27;82084;-48
2021/10/12 17:48:17;;;;;;;;;;;11.00;76.10;;;;;;5046714;28;82121;-61
2021/10/12 17:50:46;;;;;;;;;;;11.00;76.30;;;;;;5045752;28;84132;-61
2021/10/12 17:53:14;;;;;;;;;;;11.00;76.30;;;;;;5042854;28;82934;-50
2021/10/12 17:55:39;;;;;;;;;;;11.00;76.10;;;;;;5044652;28;82478;-52
2021/10/12 17:58:05;;;;;;;;;;;10.90;75.90;;;;;;5043325;28;83581;-51
2021/10/12 18:00:30;;;;;;;;;;;10.80;76.20;;;;;;5045838;28;82096;-52
2021/10/12 18:02:56;;;;;;;;;;;10.70;76.30;;;;;;5043481;28;83585;-50
2021/10/12 18:05:21;;;;;;;;;;;10.80;76.20;;;;;;5045607;28;82116;-50
2021/10/12 18:07:47;;;;;;;;;;;10.70;76.10;;;;;;5047017;28;82088;-51
2021/10/12 18:10:14;;;;;;;;;;;10.70;76.10;;;;;;5046780;28;83203;-52
2021/10/12 18:12:39;;;;;;;;;;;10.70;76.10;;;;;;5045287;28;82119;-49
2021/10/12 18:15:05;;;;;;;;;;;10.70;76.10;;;;;;5045800;28;82193;-51
2021/10/12 18:17:31;;;;;;;;;;;10.70;75.90;;;;;;5046117;28;84064;-50
2021/10/12 18:19:56;;;;;;;;;;;10.70;75.90;;;;;;5045713;28;81922;-52
2021/10/12 18:22:22;;;;;;;;;;;10.60;75.90;;;;;;5044486;28;83777;-50
2021/10/12 18:24:47;;;;;;;;;;;10.60;76.10;;;;;;5042815;28;82138;-51
2021/10/12 18:27:13;;;;;;;;;;;10.50;76.10;;;;;;5043513;28;83121;-50
2021/10/12 18:29:39;;;;;;;;;;;10.60;76.00;;;;;;5044682;28;85031;-50
2021/10/12 18:32:04;;;;;;;;;;;10.50;76.10;;;;;;5046238;28;82119;-52
2021/10/12 18:34:30;;;;;;;;;;;10.50;76.20;;;;;;5044489;28;83343;-50
2021/10/12 18:36:55;;;;;;;;;;;10.50;76.10;;;;;;5042810;28;82664;-50
2021/10/12 18:39:21;;;;;;;;;;;10.50;76.20;;;;;;5041541;28;82085;-49
2021/10/12 18:41:47;;;;;;;;;;;10.50;76.00;;;;;;5042741;28;83640;-50
2021/10/12 18:44:14;;;;;;;;;;;10.40;76.00;;;;;;5046103;28;82091;-50
2021/10/12 18:46:40;;;;;;;;;;;10.40;75.90;;;;;;5042814;28;82091;-54
2021/10/12 18:49:05;;;;;;;;;;;10.40;75.90;;;;;;5042245;28;83016;-52
2021/10/12 18:51:31;;;;;;;;;;;10.40;75.80;;;;;;5042679;28;83125;-50
2021/10/12 18:53:57;;;;;;;;;;;10.40;75.80;;;;;;5044036;28;84355;-50
2021/10/12 18:56:22;;;;;;;;;;;10.40;75.80;;;;;;5044570;27;84073;-50
2021/10/12 18:58:48;;;;;;;;;;;10.40;76.00;;;;;;5045270;28;82982;-49
2021/10/12 19:01:19;;;;;;;;;;;10.40;75.90;;;;;;5042033;28;83100;-51
2021/10/12 19:03:44;;;;;;;;;;;10.40;75.90;;;;;;5041234;28;84568;-50
2021/10/12 19:06:10;;;;;;;;;;;10.40;75.60;;;;;;5045479;28;82103;-49
2021/10/12 19:08:35;;;;;;;;;;;10.30;75.70;;;;;;5043270;28;82840;-50
2021/10/12 19:11:06;;;;;;;;;;;10.30;75.80;;;;;;5043672;28;82065;-52
2021/10/12 19:13:41;;;;;;;;;;;10.30;75.90;;;;;;5044728;28;83359;-50
2021/10/12 19:16:08;;;;;;;;;;;10.30;75.90;;;;;;5044579;28;85556;-50
2021/10/12 19:18:38;;;;;;;;;;;10.30;75.90;;;;;;5043537;28;82148;-51
2021/10/12 19:21:06;;;;;;;;;;;10.30;76.10;;;;;;5044056;28;83680;-53
2021/10/12 19:23:32;;;;;;;;;;;10.20;76.20;;;;;;5043602;28;83009;-51
2021/10/12 19:25:57;;;;;;;;;;;10.20;76.20;;;;;;5048359;28;82182;-50
2021/10/12 19:28:23;;;;;;;;;;;10.20;76.20;;;;;;5041925;28;84544;-51
2021/10/12 19:30:49;;;;;;;;;;;10.20;76.60;;;;;;5040938;28;83817;-50
2021/10/12 19:33:15;;;;;;;;;;;10.20;75.80;;;;;;5041318;28;84262;-54
2021/10/12 19:35:41;;;;;;;;;;;10.30;75.80;;;;;;5041968;28;82834;-51
2021/10/12 19:38:14;;;;;;;;;;;10.20;76.00;;;;;;5040174;28;82089;-50
2021/10/12 19:40:42;;;;;;;;;;;10.20;76.20;;;;;;5043606;28;83057;-52
2021/10/12 19:43:08;;;;;;;;;;;10.20;75.90;;;;;;5041593;28;84342;-49
2021/10/12 19:45:34;;;;;;;;;;;10.20;76.10;;;;;;5042335;28;82212;-53
2021/10/12 19:48:03;;;;;;;;;;;10.10;76.20;;;;;;5046313;28;82201;-52
2021/10/12 19:50:29;;;;;;;;;;;10.10;76.40;;;;;;5040347;28;82065;-51
2021/10/12 19:52:55;;;;;;;;;;;10.10;76.40;;;;;;5040748;28;82542;-50
2021/10/12 19:55:20;;;;;;;;;;;10.10;76.10;;;;;;5041517;28;84225;-50
2021/10/12 19:57:46;;;;;;;;;;;10.10;76.40;;;;;;5043159;28;81392;-50
2021/10/12 20:00:13;;;;;;;;;;;10.00;76.50;;;;;;5043601;28;82163;-52
2021/10/12 20:05:04;;;;;;;;;;;10.00;76.60;;;;;;5041805;28;83011;-51
2021/10/12 20:07:30;;;;;;;;;;;10.00;76.60;;;;;;5042759;28;83364;-51
2021/10/12 20:09:55;;;;;;;;;;;10.00;76.50;;;;;;5047289;28;82691;-50
2021/10/12 20:12:22;;;;;;;;;;;10.00;76.50;;;;;;5042405;28;83244;-50
2021/10/12 20:14:47;;;;;;;;;;;10.00;76.50;;;;;;5042460;28;83748;-54
2021/10/12 20:17:13;;;;;;;;;;;10.00;76.40;;;;;;5040170;28;82095;-51
2021/10/12 20:22:22;;;;;;;;;;;10.00;76.30;;;;;;5044890;28;81310;-53
2021/10/12 20:24:49;;;;;;;;;;;10.00;76.30;;;;;;5043506;28;82213;-53
2021/10/12 20:27:15;;;;;;;;;;;10.10;75.90;;;;;;5040971;28;84000;-50
2021/10/12 20:29:41;;;;;;;;;;;10.00;75.80;;;;;;5040579;28;85570;-51
2021/10/12 20:32:06;;;;;;;;;;;10.00;75.90;;;;;;5045313;28;82132;-51
2021/10/12 20:34:32;;;;;;;;;;;10.00;76.00;;;;;;5043130;28;83043;-52
2021/10/12 20:36:58;;;;;;;;;;;10.00;75.90;;;;;;5043805;28;82158;-54
2021/10/12 20:39:24;;;;;;;;;;;9.90;76.10;;;;;;5044474;28;83747;-53
2021/10/12 20:41:49;;;;;;;;;;;10.00;76.00;;;;;;5044219;28;84376;-53
2021/10/12 20:44:18;;;;;;;;;;;10.00;75.80;;;;;;5041139;28;83553;-49
2021/10/12 20:46:44;;;;;;;;;;;10.00;75.70;;;;;;5043558;28;82873;-52
2021/10/12 20:49:10;;;;;;;;;;;10.10;75.40;;;;;;5042367;28;83288;-53
2021/10/12 20:51:35;;;;;;;;;;;10.10;75.30;;;;;;5043304;28;82112;-50
2021/10/12 20:54:01;;;;;;;;;;;10.00;75.50;;;;;;5045981;28;84381;-50
2021/10/12 20:56:26;;;;;;;;;;;10.10;75.40;;;;;;5040933;28;83019;-52
2021/10/12 20:58:52;;;;;;;;;;;10.00;75.30;;;;;;5039507;28;82211;-53
2021/10/12 21:01:17;;;;;;;;;;;10.00;75.70;;;;;;5040767;28;83116;-54
2021/10/12 21:03:43;;;;;;;;;;;9.90;75.70;;;;;;5042190;28;82203;-52
2021/10/12 21:06:09;;;;;;;;;;;9.90;75.90;;;;;;5043098;28;83708;-53
2021/10/12 21:08:34;;;;;;;;;;;9.90;75.80;;;;;;5044013;28;82621;-50
2021/10/12 21:11:00;;;;;;;;;;;9.90;75.50;;;;;;5041920;28;81470;-51
2021/10/12 21:13:25;;;;;;;;;;;9.90;75.70;;;;;;5039724;28;82100;-50
2021/10/12 21:15:51;;;;;;;;;;;10.00;75.50;;;;;;5043491;28;83429;-50
2021/10/12 21:18:17;;;;;;;;;;;9.90;75.40;;;;;;5040976;28;83051;-53
2021/10/12 21:20:42;;;;;;;;;;;9.80;75.80;;;;;;5043532;27;83314;-54
2021/10/12 21:23:08;;;;;;;;;;;9.80;75.90;;;;;;5046624;28;82130;-51
2021/10/12 21:25:34;;;;;;;;;;;9.80;76.10;;;;;;5047568;28;82070;-50
2021/10/12 21:27:59;;;;;;;;;;;9.80;76.10;;;;;;5047538;28;82173;-52
2021/10/12 21:30:25;;;;;;;;;;;9.80;75.80;;;;;;5046508;28;83111;-51
2021/10/12 21:32:50;;;;;;;;;;;9.80;76.10;;;;;;5045081;28;83252;-50
2021/10/12 21:35:16;;;;;;;;;;;9.80;76.10;;;;;;5049143;28;82949;-51
2021/10/12 21:37:43;;;;;;;;;;;9.70;76.10;;;;;;5045526;28;83053;-50
2021/10/12 21:40:08;;;;;;;;;;;9.70;76.30;;;;;;5046723;28;84689;-50
2021/10/12 21:42:35;;;;;;;;;;;9.70;76.30;;;;;;5045577;28;83168;-53
2021/10/12 21:45:04;;;;;;;;;;;9.70;76.30;;;;;;5043897;28;84395;-50
2021/10/12 21:47:30;;;;;;;;;;;9.70;76.40;;;;;;5046743;28;84209;-52
2021/10/12 21:49:56;;;;;;;;;;;9.70;76.40;;;;;;5046186;28;83274;-50
2021/10/12 21:52:21;;;;;;;;;;;9.70;76.30;;;;;;5042616;28;83836;-53
2021/10/12 21:54:47;;;;;;;;;;;9.70;76.30;;;;;;5042788;28;84350;-52
2021/10/12 21:57:12;;;;;;;;;;;9.70;76.30;;;;;;5045300;28;82147;-51
2021/10/12 21:59:38;;;;;;;;;;;9.60;76.30;;;;;;5042990;28;81900;-53
2021/10/12 22:02:05;;;;;;;;;;;9.60;76.30;;;;;;5044180;28;82110;-51
2021/10/12 22:04:30;;;;;;;;;;;9.70;76.30;;;;;;5043233;28;82457;-50
2021/10/12 22:06:56;;;;;;;;;;;9.60;76.30;;;;;;5043206;28;84900;-52
2021/10/12 22:09:21;;;;;;;;;;;9.60;76.40;;;;;;5044392;28;82126;-55
2021/10/12 22:11:47;;;;;;;;;;;9.60;76.40;;;;;;5045671;28;82575;-50
2021/10/12 22:14:12;;;;;;;;;;;9.60;76.30;;;;;;5046384;28;84132;-51
2021/10/12 22:16:38;;;;;;;;;;;9.60;76.40;;;;;;5046965;28;82309;-51
2021/10/12 22:19:03;;;;;;;;;;;9.60;76.40;;;;;;5046191;28;82914;-51
2021/10/12 22:21:29;;;;;;;;;;;9.60;76.30;;;;;;5042384;28;82207;-52
2021/10/12 22:23:55;;;;;;;;;;;9.60;76.20;;;;;;5043593;28;82749;-52
2021/10/12 22:26:20;;;;;;;;;;;9.60;76.40;;;;;;5044015;28;84544;-52
2021/10/12 22:28:46;;;;;;;;;;;9.60;76.40;;;;;;5045642;28;82093;-50
2021/10/12 22:31:12;;;;;;;;;;;9.60;76.50;;;;;;5044951;27;83113;-50
2021/10/12 22:33:37;;;;;;;;;;;9.60;76.50;;;;;;5042912;28;83117;-50
2021/10/12 22:36:04;;;;;;;;;;;9.50;76.50;;;;;;5041550;28;82214;-51
2021/10/12 22:38:29;;;;;;;;;;;9.60;76.30;;;;;;5041965;28;82093;-50
2021/10/12 22:40:55;;;;;;;;;;;9.60;76.30;;;;;;5045424;28;83161;-52
2021/10/12 22:43:21;;;;;;;;;;;9.60;76.20;;;;;;5044140;28;82465;-50
2021/10/12 22:45:47;;;;;;;;;;;9.60;76.20;;;;;;5043063;28;82090;-53
2021/10/12 22:48:12;;;;;;;;;;;9.60;76.20;;;;;;5044717;28;81424;-51
2021/10/12 22:50:38;;;;;;;;;;;9.50;76.40;;;;;;5045627;28;82152;-53
2021/10/12 22:53:03;;;;;;;;;;;9.60;76.20;;;;;;5045112;28;84486;-51
2021/10/12 22:55:29;;;;;;;;;;;9.50;76.30;;;;;;5042007;28;83704;-51
2021/10/12 22:57:55;;;;;;;;;;;9.50;76.20;;;;;;5041764;28;83151;-53
2021/10/12 23:00:20;;;;;;;;;;;9.50;76.20;;;;;;5042532;28;82526;-50
2021/10/12 23:02:46;;;;;;;;;;;9.50;76.20;;;;;;5046543;28;82224;-50
2021/10/12 23:05:12;;;;;;;;;;;9.50;76.20;;;;;;5045033;28;82123;-52
2021/10/12 23:07:37;;;;;;;;;;;9.50;76.20;;;;;;5045517;28;83177;-50
2021/10/12 23:10:04;;;;;;;;;;;9.50;76.30;;;;;;5042221;28;82760;-52
2021/10/12 23:12:29;;;;;;;;;;;9.50;76.30;;;;;;5043324;28;83817;-49
2021/10/12 23:14:55;;;;;;;;;;;9.50;76.20;;;;;;5041284;28;82173;-52
2021/10/12 23:17:20;;;;;;;;;;;9.50;76.20;;;;;;5041439;28;83741;-51
2021/10/12 23:19:46;;;;;;;;;;;9.50;76.20;;;;;;5041540;28;83616;-51
2021/10/12 23:22:11;;;;;;;;;;;9.50;76.20;;;;;;5043763;28;82055;-50
2021/10/12 23:24:37;;;;;;;;;;;9.50;76.20;;;;;;5047096;28;82347;-50
2021/10/12 23:27:03;;;;;;;;;;;9.50;76.20;;;;;;5044245;28;82142;-54
2021/10/12 23:29:28;;;;;;;;;;;9.50;76.10;;;;;;5045704;28;82648;-51
2021/10/12 23:31:54;;;;;;;;;;;9.50;76.40;;;;;;5042712;28;83842;-50
2021/10/12 23:34:19;;;;;;;;;;;9.40;76.20;;;;;;5041124;28;82090;-52
2021/10/12 23:36:46;;;;;;;;;;;9.40;76.30;;;;;;5041968;28;82879;-53
2021/10/12 23:39:11;;;;;;;;;;;9.40;76.50;;;;;;5040433;28;83879;-54
2021/10/12 23:41:37;;;;;;;;;;;9.50;76.30;;;;;;5041149;28;82159;-51
2021/10/12 23:44:02;;;;;;;;;;;9.50;76.20;;;;;;5042490;28;83066;-51
2021/10/12 23:46:28;;;;;;;;;;;9.40;76.20;;;;;;5041802;28;82101;-51
2021/10/12 23:48:53;;;;;;;;;;;9.50;76.20;;;;;;5042340;28;82290;-55
2021/10/12 23:51:19;;;;;;;;;;;9.40;76.00;;;;;;5042983;28;83143;-50
2021/10/12 23:53:44;;;;;;;;;;;9.40;76.20;;;;;;5044187;28;82138;-52
2021/10/12 23:56:10;;;;;;;;;;;9.40;76.20;;;;;;5044475;28;83498;-52
2021/10/12 23:58:35;;;;;;;;;;;9.40;76.40;;;;;;5041026;28;83658;-53
